Terminal Aerodrome Forecast
Issued by NWS

Home | Current Version | Previous Version | Text Only | Print | Product List | Glossary On
Versions: 1 2 3 4 5 6 7 8 9 10 11 12 13 14 15 16 17 18 19 20 21 22 23 24 25 26
928
FTAK31 PAFA 230531
TAFAOT
TAF
PAOT 230531Z 2306/2406 06008KT P6SM BKN150
     FM230900 09015G22KT P6SM BKN150
     FM231000 09025G35KT 2SM -SN BLSN BKN025 OVC035
     FM231500 10032G42KT 1/2SM -SN BLSN BKN007 OVC025
     FM232000 10035G45KT 1/4SM SN BLSN VV003=

USA.gov is the U.S. government's official web portal to all federal, state and local government web resources and services.